Time;durP1;ratioP1;P1;durP2;ratioP2;P2;SDS_P1;SDS_P2;PMS_P1;PMS_P2;Temp;Humidity;BMP_temperature;BMP_pressure;BME280_temperature;BME280_humidity;BME280_pressure;Samples;Min_cycle;Max_cycle;Signal;HPM_P1;HPM_P2
2021/09/23 00:00:45;;;;;;;3.27;2.50;;;;;;;12.76;63.23;101767.06;5134060;27;20177;-60
2021/09/23 00:03:20;;;;;;;4.30;2.87;;;;;;;12.53;63.54;101744.72;5133544;27;20197;-60
2021/09/23 00:05:46;;;;;;;4.30;3.20;;;;;;;12.61;63.33;101746.97;5133827;27;20160;-59
2021/09/23 00:08:11;;;;;;;8.03;5.17;;;;;;;12.78;63.33;101773.78;5133436;27;20182;-60
2021/09/23 00:10:40;;;;;;;9.13;5.30;;;;;;;12.75;63.15;101768.25;5133603;27;20177;-60
2021/09/23 00:13:07;;;;;;;7.37;4.87;;;;;;;12.51;63.58;101741.59;5133515;27;20173;-60
2021/09/23 00:15:34;;;;;;;5.33;3.80;;;;;;;12.64;63.47;101767.59;5133491;27;20181;-60
2021/09/23 00:18:04;;;;;;;4.37;2.97;;;;;;;12.53;63.31;101734.41;5133103;27;20274;-60
2021/09/23 00:20:31;;;;;;;3.37;2.50;;;;;;;12.47;63.27;101733.31;5133586;27;20174;-60
2021/09/23 00:22:57;;;;;;;3.93;2.53;;;;;;;12.72;62.93;101771.88;5133468;27;20211;-61
2021/09/23 00:25:25;;;;;;;3.23;2.67;;;;;;;12.78;63.11;101767.41;5133140;27;20190;-60
2021/09/23 00:27:52;;;;;;;3.67;2.57;;;;;;;12.76;62.88;101769.84;5132914;27;20166;-60
2021/09/23 00:30:18;;;;;;;3.93;2.40;;;;;;;12.69;62.97;101770.72;5133288;27;20205;-60
2021/09/23 00:32:43;;;;;;;2.83;2.30;;;;;;;12.57;62.79;101759.38;5133232;27;20201;-61
2021/09/23 00:35:09;;;;;;;4.03;2.60;;;;;;;12.35;63.19;101719.94;5132949;27;20174;-60
2021/09/23 00:37:35;;;;;;;3.30;2.60;;;;;;;12.55;63.32;101767.34;5132772;27;20607;-61
2021/09/23 00:40:01;;;;;;;2.83;2.27;;;;;;;12.55;63.25;101772.91;5133013;27;20253;-60
2021/09/23 00:42:27;;;;;;;2.70;2.30;;;;;;;12.61;63.16;101769.22;5133091;27;20639;-60
2021/09/23 00:44:57;;;;;;;3.10;2.40;;;;;;;12.55;63.21;101779.25;5132710;27;20180;-61
2021/09/23 00:47:23;;;;;;;5.23;2.63;;;;;;;12.52;63.47;101779.31;5132826;27;20177;-60
2021/09/23 00:49:49;;;;;;;3.07;2.60;;;;;;;12.52;63.64;101768.97;5132900;27;20705;-60
2021/09/23 00:52:15;;;;;;;3.10;2.50;;;;;;;12.47;63.65;101766.66;5132487;27;20249;-61
2021/09/23 00:54:40;;;;;;;4.67;3.13;;;;;;;12.43;63.99;101760.38;5132657;27;20640;-60
2021/09/23 00:57:06;;;;;;;5.20;3.40;;;;;;;12.49;64.05;101769.00;5132222;27;20203;-60
2021/09/23 00:59:31;;;;;;;5.33;4.00;;;;;;;12.45;63.98;101763.50;5132997;27;20608;-60
2021/09/23 01:01:57;;;;;;;5.70;4.20;;;;;;;12.48;63.99;101773.78;5132991;27;20174;-60
2021/09/23 01:04:22;;;;;;;6.73;3.87;;;;;;;12.39;64.45;101773.50;5132487;27;20209;-60
2021/09/23 01:06:51;;;;;;;4.23;3.10;;;;;;;12.39;64.37;101761.59;5132164;27;20177;-60
2021/09/23 01:09:16;;;;;;;4.33;3.40;;;;;;;12.37;64.48;101767.59;5132182;27;20266;-60
2021/09/23 01:11:42;;;;;;;3.67;3.07;;;;;;;12.33;64.54;101757.72;5132458;27;20608;-60
2021/09/23 01:14:10;;;;;;;3.47;2.70;;;;;;;12.23;64.74;101765.00;5132264;27;20173;-60
2021/09/23 01:16:37;;;;;;;4.03;3.47;;;;;;;11.96;64.85;101738.31;5132292;27;20177;-60
2021/09/23 01:19:03;;;;;;;3.97;3.33;;;;;;;12.12;64.93;101767.13;5132370;27;20234;-60
2021/09/23 01:21:28;;;;;;;5.03;3.57;;;;;;;12.15;65.08;101765.50;5132172;27;20605;-60
2021/09/23 01:23:54;;;;;;;4.70;3.37;;;;;;;12.16;64.90;101770.66;5132177;27;20253;-60
2021/09/23 01:26:26;;;;;;;5.53;3.87;;;;;;;12.17;64.88;101771.41;5132070;27;20569;-61
2021/09/23 01:28:53;;;;;;;6.80;4.30;;;;;;;12.16;64.77;101780.97;5113771;27;20210;-60
2021/09/23 01:31:20;;;;;;;6.23;4.60;;;;;;;12.11;64.92;101775.84;5132013;27;20181;-60
2021/09/23 01:33:45;;;;;;;6.37;4.63;;;;;;;12.08;64.86;101766.38;5131851;27;20189;-61
2021/09/23 01:36:11;;;;;;;6.43;4.77;;;;;;;12.16;64.72;101781.75;5131852;27;20184;-60
2021/09/23 01:38:36;;;;;;;6.63;4.50;;;;;;;12.02;64.75;101772.78;5131414;27;20259;-60
2021/09/23 01:41:02;;;;;;;6.57;4.00;;;;;;;12.03;64.84;101774.34;5131777;27;20661;-60
2021/09/23 01:43:27;;;;;;;5.67;3.80;;;;;;;12.00;64.82;101781.53;5131905;27;20197;-60
2021/09/23 01:45:53;;;;;;;5.60;3.53;;;;;;;12.00;64.85;101781.53;5131876;27;20605;-59
2021/09/23 01:48:18;;;;;;;4.30;3.90;;;;;;;11.95;64.71;101773.66;5131576;27;20172;-61
2021/09/23 01:50:44;;;;;;;5.20;3.70;;;;;;;11.94;64.56;101780.41;5113727;27;20646;-60
2021/09/23 01:53:09;;;;;;;4.97;3.47;;;;;;;11.93;64.59;101787.16;5131528;27;20237;-60
2021/09/23 01:55:35;;;;;;;4.67;3.90;;;;;;;11.91;64.72;101783.22;5131740;27;20176;-60
2021/09/23 01:58:00;;;;;;;5.77;3.73;;;;;;;11.82;64.71;101772.63;5131269;27;20191;-60
2021/09/23 02:00:26;;;;;;;5.63;4.20;;;;;;;11.77;64.89;101766.72;5131924;27;20183;-60
2021/09/23 02:02:54;;;;;;;5.90;4.60;;;;;;;11.89;64.87;101789.19;5113278;28;20214;-61
2021/09/23 02:05:19;;;;;;;5.63;4.67;;;;;;;11.86;65.07;101784.47;5131497;28;20291;-61
2021/09/23 02:07:45;;;;;;;5.80;4.40;;;;;;;11.87;64.92;101785.25;5131446;28;20248;-60
2021/09/23 02:10:11;;;;;;;5.57;4.37;;;;;;;11.84;64.84;101789.66;5131383;28;20614;-60
2021/09/23 02:12:36;;;;;;;5.10;4.50;;;;;;;11.74;64.71;101757.22;5113223;28;20734;-60
2021/09/23 02:15:03;;;;;;;5.90;4.70;;;;;;;11.95;64.59;101786.75;5112902;28;20181;-61
2021/09/23 02:17:29;;;;;;;5.70;4.43;;;;;;;11.95;64.23;101784.75;5131390;28;20177;-60
2021/09/23 02:19:56;;;;;;;5.50;4.50;;;;;;;11.79;64.32;101759.53;5131591;28;20185;-60
2021/09/23 02:22:22;;;;;;;4.87;4.20;;;;;;;11.77;64.21;101761.16;5131290;28;20216;-60
2021/09/23 02:24:47;;;;;;;6.20;4.63;;;;;;;11.85;64.14;101776.56;5131468;28;20657;-61
2021/09/23 02:27:13;;;;;;;6.57;5.07;;;;;;;11.80;64.49;101780.59;5131351;28;20177;-60
2021/09/23 02:29:38;;;;;;;7.00;5.30;;;;;;;11.58;64.18;101745.84;5131529;28;20186;-60
2021/09/23 02:32:06;;;;;;;6.30;5.53;;;;;;;11.89;64.20;101793.97;5131352;28;20239;-61
2021/09/23 02:34:32;;;;;;;6.13;5.30;;;;;;;11.83;64.11;101779.75;5131214;28;20185;-60
2021/09/23 02:36:58;;;;;;;6.33;5.60;;;;;;;11.68;64.22;101778.31;5131130;28;20257;-60
2021/09/23 02:39:23;;;;;;;7.20;6.10;;;;;;;11.79;64.32;101787.31;5112774;28;20284;-60
2021/09/23 02:41:49;;;;;;;7.17;6.23;;;;;;;11.71;64.20;101771.94;5131271;28;20180;-60
2021/09/23 02:44:14;;;;;;;7.63;5.93;;;;;;;11.80;64.29;101788.13;5131281;28;20204;-60
2021/09/23 02:46:40;;;;;;;7.63;5.77;;;;;;;11.86;64.02;101786.47;5130733;28;20178;-60
2021/09/23 02:49:06;;;;;;;6.77;5.83;;;;;;;11.60;63.91;101749.06;5131000;28;20532;-60
2021/09/23 02:51:32;;;;;;;7.10;5.27;;;;;;;11.71;63.82;101765.59;5132411;27;20235;-61
2021/09/23 02:53:57;;;;;;;7.73;6.00;;;;;;;11.82;63.84;101796.81;5116752;27;20177;-60
2021/09/23 02:56:22;;;;;;;6.57;5.80;;;;;;;11.29;64.17;101727.91;5135258;27;20204;-61
2021/09/23 02:58:50;;;;;;;7.30;6.40;;;;;;;11.72;64.17;101792.94;5134738;27;20172;-60
2021/09/23 03:01:17;;;;;;;7.30;5.47;;;;;;;11.73;64.08;101783.41;5116517;27;20200;-60
2021/09/23 03:03:43;;;;;;;5.87;5.20;;;;;;;11.75;63.80;101789.38;5134740;27;20228;-60
2021/09/23 03:06:09;;;;;;;5.97;5.27;;;;;;;11.75;64.04;101791.34;5134842;27;20196;-60
2021/09/23 03:08:34;;;;;;;7.33;6.07;;;;;;;11.79;63.83;101798.44;5134646;27;20605;-60
2021/09/23 03:11:00;;;;;;;6.47;5.77;;;;;;;11.77;63.88;101798.06;5116481;27;20185;-61
2021/09/23 03:13:25;;;;;;;6.97;5.13;;;;;;;11.68;64.15;101799.75;5135022;27;20222;-61
2021/09/23 03:15:51;;;;;;;6.40;5.67;;;;;;;11.65;64.03;101801.38;5134665;27;20608;-60
2021/09/23 03:18:17;;;;;;;7.17;5.87;;;;;;;11.38;64.20;101767.06;5134339;27;20645;-60
2021/09/23 03:20:44;;;;;;;6.90;5.80;;;;;;;11.52;64.07;101789.16;5116270;27;20241;-60
2021/09/23 03:23:11;;;;;;;6.10;5.50;;;;;;;11.54;64.05;101786.72;5134374;27;20196;-60
2021/09/23 03:25:36;;;;;;;7.27;5.37;;;;;;;11.51;63.82;101784.81;5116102;27;20216;-60
2021/09/23 03:28:03;;;;;;;6.73;5.13;;;;;;;11.27;63.52;101779.47;5134309;27;20195;-60
2021/09/23 03:30:28;;;;;;;6.60;5.07;;;;;;;11.48;63.27;101802.25;5134565;27;20175;-60
2021/09/23 03:32:54;;;;;;;13.50;5.97;;;;;;;11.49;63.35;101803.06;5134349;27;20232;-60
2021/09/23 03:35:21;;;;;;;9.87;6.00;;;;;;;11.45;63.73;101813.41;5134272;27;20176;-60
2021/09/23 03:37:48;;;;;;;6.73;5.90;;;;;;;11.45;63.42;101808.66;5134099;27;20172;-60
2021/09/23 03:40:13;;;;;;;7.37;6.00;;;;;;;11.36;63.78;101808.31;5134406;27;20196;-61
2021/09/23 03:42:39;;;;;;;7.47;6.20;;;;;;;11.37;64.01;101815.44;5115832;27;20700;-61
2021/09/23 03:45:06;;;;;;;6.70;6.00;;;;;;;11.26;63.72;101803.66;5134043;27;20185;-60
2021/09/23 03:47:32;;;;;;;7.63;6.33;;;;;;;11.30;63.97;101826.63;5133859;27;20237;-60
2021/09/23 03:49:58;;;;;;;9.23;6.23;;;;;;;11.16;63.91;101804.53;5115577;27;20181;-61
2021/09/23 03:52:23;;;;;;;5.50;4.83;;;;;;;11.55;70.55;101829.97;5130272;27;20281;-63
2021/09/23 03:54:49;;;;;;;2.90;2.60;;;;;;;15.50;69.79;101832.94;5128928;27;20207;-61
2021/09/23 03:57:14;;;;;;;3.43;2.97;;;;;;;16.82;63.00;101830.47;5132533;27;20565;-64
2021/09/23 03:59:40;;;;;;;4.70;2.97;;;;;;;17.23;58.72;101808.78;5133130;27;20168;-64
2021/09/23 04:02:06;;;;;;;4.37;3.10;;;;;;;18.12;54.27;101837.41;5124890;27;20264;-64
2021/09/23 04:04:32;;;;;;;4.83;3.40;;;;;;;18.58;50.38;101834.47;5120910;27;20205;-66
2021/09/23 04:06:58;;;;;;;4.40;2.80;;;;;;;18.69;49.61;101823.66;5112363;28;20185;-66
2021/09/23 04:09:24;;;;;;;3.73;3.33;;;;;;;18.85;47.53;101839.47;5094324;28;20258;-64
2021/09/23 04:11:49;;;;;;;4.57;3.63;;;;;;;18.85;46.55;101823.44;5112427;28;20177;-64
2021/09/23 04:14:15;;;;;;;4.80;3.40;;;;;;;19.03;45.00;101831.94;5111863;28;20277;-64
2021/09/23 04:16:40;;;;;;;5.10;3.70;;;;;;;19.12;44.13;101811.50;5112208;28;20181;-64
2021/09/23 04:19:06;;;;;;;3.97;3.30;;;;;;;19.06;44.18;101847.88;5113076;27;20176;-64
2021/09/23 04:21:31;;;;;;;5.90;3.37;;;;;;;19.06;43.95;101849.88;5132876;27;20177;-66
2021/09/23 04:23:57;;;;;;;3.33;2.77;;;;;;;19.40;43.55;101850.53;5132571;27;20216;-66
2021/09/23 04:26:23;;;;;;;4.20;3.70;;;;;;;19.15;43.83;101853.53;5131404;27;20191;-63
2021/09/23 04:28:49;;;;;;;3.97;3.10;;;;;;;19.21;43.60;101854.50;5113888;27;20174;-60
2021/09/23 04:31:14;;;;;;;4.53;3.47;;;;;;;19.38;43.27;101843.78;5132628;27;20183;-66
2021/09/23 04:33:40;;;;;;;5.80;3.80;;;;;;;19.43;42.97;101849.59;5131656;27;20176;-63
2021/09/23 04:36:06;;;;;;;6.87;4.80;;;;;;;19.08;40.78;101803.22;5131144;27;20286;-62
2021/09/23 04:38:31;;;;;;;6.37;4.50;;;;;;;18.50;41.81;101861.28;5113063;27;20294;-59
2021/09/23 04:40:57;;;;;;;5.90;4.63;;;;;;;17.68;43.31;101856.91;5131301;27;20180;-60
2021/09/23 04:43:23;;;;;;;7.03;6.17;;;;;;;16.79;44.86;101829.34;5127208;27;20592;-59
2021/09/23 04:45:48;;;;;;;9.60;6.30;;;;;;;16.33;46.29;101862.66;5097318;27;20186;-60
2021/09/23 04:48:14;;;;;;;6.70;5.70;;;;;;;15.62;47.86;101832.25;5110896;27;20186;-59
2021/09/23 04:50:40;;;;;;;5.60;5.00;;;;;;;15.15;48.95;101837.34;5115933;27;20634;-60
2021/09/23 04:53:05;;;;;;;7.10;5.43;;;;;;;14.92;50.62;101868.19;5118676;27;20315;-63
2021/09/23 04:55:31;;;;;;;7.83;5.50;;;;;;;14.34;51.45;101841.13;5108173;27;20191;-60
2021/09/23 04:57:59;;;;;;;5.93;5.30;;;;;;;14.15;52.16;101844.63;5114251;27;20187;-58
2021/09/23 05:00:25;;;;;;;7.30;5.23;;;;;;;13.87;52.89;101859.13;5125790;27;20265;-59
2021/09/23 05:02:50;;;;;;;5.30;4.80;;;;;;;13.78;53.70;101888.75;5127547;27;20706;-60
2021/09/23 05:05:16;;;;;;;6.00;4.83;;;;;;;13.63;54.40;101890.97;5129459;27;20272;-60
2021/09/23 05:07:41;;;;;;;6.50;5.30;;;;;;;13.22;54.67;101857.00;5128910;27;20263;-60
2021/09/23 05:10:07;;;;;;;5.93;4.90;;;;;;;13.36;55.36;101909.69;5122591;27;20195;-59
2021/09/23 05:12:33;;;;;;;5.43;4.80;;;;;;;13.25;55.37;101911.06;5121494;27;20271;-61
2021/09/23 05:14:58;;;;;;;5.83;5.10;;;;;;;13.25;55.85;101911.84;5126369;27;20230;-59
2021/09/23 05:17:24;;;;;;;5.97;4.73;;;;;;;13.13;55.76;101911.63;5124463;27;20571;-59
2021/09/23 05:19:50;;;;;;;6.40;5.20;;;;;;;13.19;55.71;101924.66;5122032;27;20240;-59
2021/09/23 05:22:16;;;;;;;5.77;5.00;;;;;;;12.98;56.20;101896.34;5127672;27;20206;-59
2021/09/23 05:24:43;;;;;;;5.50;4.70;;;;;;;12.91;56.54;101897.19;5128606;27;20291;-59
2021/09/23 05:27:08;;;;;;;5.47;4.57;;;;;;;13.03;56.92;101926.47;5105481;27;20185;-60
2021/09/23 05:29:34;;;;;;;5.20;4.53;;;;;;;12.99;57.12;101922.94;5103234;28;20182;-60
2021/09/23 05:31:59;;;;;;;5.90;5.10;;;;;;;13.08;56.96;101926.00;5128279;27;20818;-61
2021/09/23 05:34:25;;;;;;;5.53;4.47;;;;;;;13.02;57.33;101922.13;5130051;27;20670;-61
2021/09/23 05:36:51;;;;;;;5.40;4.60;;;;;;;13.11;57.68;101936.31;5129240;27;20571;-64
2021/09/23 05:39:16;;;;;;;6.47;4.93;;;;;;;12.91;58.02;101904.75;5126611;27;20177;-60
2021/09/23 05:41:42;;;;;;;7.63;4.77;;;;;;;13.09;57.97;101917.25;5127676;27;20244;-60
2021/09/23 05:44:09;;;;;;;4.77;4.20;;;;;;;13.14;58.00;101938.25;5127356;27;20218;-59
2021/09/23 05:46:34;;;;;;;6.50;4.20;;;;;;;13.10;57.94;101935.53;5128309;27;20615;-59
2021/09/23 05:49:00;;;;;;;4.57;4.00;;;;;;;13.14;58.08;101943.81;5126358;27;20793;-61
2021/09/23 05:51:26;;;;;;;5.57;4.50;;;;;;;13.12;57.72;101940.69;5126747;27;20631;-61
2021/09/23 05:53:51;;;;;;;5.60;4.07;;;;;;;13.10;57.89;101938.31;5127751;27;20664;-61
2021/09/23 05:56:17;;;;;;;4.70;3.57;;;;;;;13.23;57.74;101939.31;5109622;27;20179;-62
2021/09/23 05:58:42;;;;;;;6.87;4.27;;;;;;;12.88;56.95;101889.69;5127310;27;20182;-62
2021/09/23 06:01:08;;;;;;;6.07;3.83;;;;;;;13.39;57.13;101942.28;5099440;27;20193;-61
2021/09/23 06:03:33;;;;;;;5.10;3.43;;;;;;;13.25;56.89;101930.53;5104114;28;20263;-61
2021/09/23 06:05:59;;;;;;;5.60;3.87;;;;;;;13.14;56.59;101907.63;5127635;28;20305;-60
2021/09/23 06:08:24;;;;;;;7.73;3.50;;;;;;;13.27;55.85;101922.56;5127334;28;20659;-61
2021/09/23 06:10:50;;;;;;;4.07;3.17;;;;;;;13.46;55.30;101950.53;5129092;28;20262;-60
2021/09/23 06:13:15;;;;;;;4.40;3.50;;;;;;;13.37;55.67;101939.09;5122668;28;20175;-61
2021/09/23 06:15:41;;;;;;;4.00;3.10;;;;;;;13.59;55.55;101959.88;5128242;28;20191;-61
2021/09/23 06:18:07;;;;;;;4.70;3.20;;;;;;;13.72;55.41;101952.50;5114574;28;20191;-60
2021/09/23 06:20:32;;;;;;;4.83;3.23;;;;;;;13.77;54.67;101951.22;5124881;28;20285;-60
2021/09/23 06:22:58;;;;;;;3.43;2.90;;;;;;;13.78;55.19;101950.03;5108966;28;20208;-60
2021/09/23 06:25:24;;;;;;;11.33;3.30;;;;;;;13.89;54.85;101956.22;5125234;27;20185;-61
2021/09/23 06:27:50;;;;;;;5.03;3.10;;;;;;;13.94;53.45;101952.97;5130456;27;20490;-61
2021/09/23 06:30:17;;;;;;;3.50;3.10;;;;;;;13.92;53.75;101953.38;5124539;27;20223;-60
2021/09/23 06:32:43;;;;;;;3.87;3.00;;;;;;;14.01;53.51;101953.63;5128495;27;20292;-60
2021/09/23 06:35:09;;;;;;;5.93;3.30;;;;;;;13.81;53.46;101932.47;5104937;27;20711;-61
2021/09/23 06:37:35;;;;;;;3.93;3.20;;;;;;;13.90;53.60;101929.94;5126175;27;20192;-60
2021/09/23 06:40:01;;;;;;;5.30;4.00;;;;;;;14.10;53.76;101945.50;5129508;27;20188;-61
2021/09/23 06:42:26;;;;;;;9.27;5.60;;;;;;;14.15;53.72;101931.06;5129871;27;20199;-61
2021/09/23 06:44:52;;;;;;;3.67;3.10;;;;;;;14.29;52.29;101944.03;5130068;27;20212;-61
2021/09/23 06:47:18;;;;;;;4.17;3.30;;;;;;;14.32;52.74;101946.75;5130014;27;20265;-60
2021/09/23 06:49:43;;;;;;;5.53;3.40;;;;;;;14.36;51.46;101943.88;5110551;27;20208;-61
2021/09/23 06:52:09;;;;;;;4.37;2.80;;;;;;;14.42;51.15;101942.16;5130319;27;20236;-60
2021/09/23 06:54:34;;;;;;;5.40;3.80;;;;;;;14.59;50.61;101938.25;5130240;27;20184;-60
2021/09/23 06:57:00;;;;;;;3.70;3.10;;;;;;;14.49;50.09;101908.56;5128052;27;20196;-61
2021/09/23 06:59:25;;;;;;;2.90;2.40;;;;;;;14.63;49.83;101928.59;5125358;27;20615;-61
2021/09/23 07:01:51;;;;;;;4.43;2.57;;;;;;;14.70;50.79;101938.84;5131110;27;20183;-61
2021/09/23 07:04:18;;;;;;;2.93;2.33;;;;;;;14.80;48.95;101929.47;5126142;27;20744;-61
2021/09/23 07:06:43;;;;;;;4.87;2.30;;;;;;;14.90;48.37;101940.41;5125178;27;20191;-61
2021/09/23 07:09:09;;;;;;;2.47;1.80;;;;;;;14.94;47.88;101935.53;5130719;27;20669;-61
2021/09/23 07:11:35;;;;;;;2.73;2.13;;;;;;;14.87;48.33;101915.34;5130455;27;20556;-61
2021/09/23 07:14:00;;;;;;;3.97;2.43;;;;;;;14.69;47.31;101914.94;5131344;27;20188;-60
2021/09/23 07:16:26;;;;;;;2.50;2.03;;;;;;;14.77;47.89;101922.75;5131460;27;20675;-61
2021/09/23 07:18:51;;;;;;;3.70;1.90;;;;;;;14.90;48.22;101929.22;5126291;27;20194;-61
2021/09/23 07:21:17;;;;;;;5.50;1.87;;;;;;;15.10;48.23;101937.59;5129396;27;20727;-60
2021/09/23 07:23:42;;;;;;;3.60;2.00;;;;;;;15.12;46.82;101938.72;5127223;27;20200;-61
2021/09/23 07:26:08;;;;;;;4.97;1.97;;;;;;;15.04;46.55;101900.22;5131096;27;20588;-61
2021/09/23 07:28:33;;;;;;;2.47;1.70;;;;;;;15.34;45.54;101941.88;5127965;27;20239;-61
2021/09/23 07:30:59;;;;;;;2.60;1.80;;;;;;;15.30;45.57;101919.59;5128459;27;20690;-61
2021/09/23 07:33:24;;;;;;;3.50;1.90;;;;;;;15.39;45.16;101930.19;5106592;27;20630;-60
2021/09/23 07:35:51;;;;;;;3.60;2.27;;;;;;;15.36;46.25;101929.03;5128487;27;20192;-61
2021/09/23 07:38:16;;;;;;;4.77;2.47;;;;;;;15.56;45.20;101943.75;5125023;27;20837;-61
2021/09/23 07:40:42;;;;;;;2.43;1.83;;;;;;;15.47;45.51;101949.16;5128314;27;20462;-61
2021/09/23 07:43:08;;;;;;;2.80;2.10;;;;;;;15.33;45.10;101920.75;5109391;27;20201;-61
2021/09/23 07:45:33;;;;;;;2.83;1.87;;;;;;;14.68;45.52;101818.50;5129900;27;20183;-61
2021/09/23 07:47:59;;;;;;;2.77;2.03;;;;;;;15.44;45.99;101938.84;5108899;27;20676;-60
2021/09/23 07:50:25;;;;;;;3.47;2.87;;;;;;;15.28;44.66;101902.50;5129094;27;20208;-60
2021/09/23 07:52:50;;;;;;;3.23;1.90;;;;;;;15.50;45.21;101950.28;5129636;27;20234;-60
2021/09/23 07:55:16;;;;;;;3.67;2.20;;;;;;;15.60;45.65;101950.03;5127301;27;20646;-62
2021/09/23 07:57:41;;;;;;;3.93;2.00;;;;;;;15.42;45.43;101912.56;5123904;27;20244;-61
2021/09/23 08:00:07;;;;;;;3.97;2.03;;;;;;;15.76;44.27;101949.25;5128845;27;20274;-61
2021/09/23 08:02:33;;;;;;;2.67;1.70;;;;;;;15.82;43.54;101945.50;5103343;27;20271;-61
2021/09/23 08:04:59;;;;;;;2.70;1.90;;;;;;;15.80;43.98;101941.59;5109368;27;20289;-61
2021/09/23 08:07:24;;;;;;;3.17;1.70;;;;;;;15.92;43.71;101943.66;5129663;27;20211;-61
2021/09/23 08:09:50;;;;;;;3.30;2.00;;;;;;;15.96;44.35;101945.16;5105035;27;20187;-61
2021/09/23 08:12:15;;;;;;;3.23;2.03;;;;;;;15.66;43.79;101898.00;5129452;27;20279;-61
2021/09/23 08:14:41;;;;;;;2.20;1.80;;;;;;;16.02;44.28;101949.00;5128040;27;20174;-61
2021/09/23 08:17:06;;;;;;;2.77;1.83;;;;;;;16.06;43.78;101960.91;5129854;27;20578;-60
2021/09/23 08:19:35;;;;;;;2.10;1.60;;;;;;;16.05;42.84;101952.94;5128898;27;20240;-60
2021/09/23 08:22:02;;;;;;;2.37;1.67;;;;;;;15.83;42.41;101918.34;5128781;27;20858;-61
2021/09/23 08:24:28;;;;;;;2.70;1.97;;;;;;;16.09;42.96;101936.84;5128479;27;20252;-61
2021/09/23 08:26:53;;;;;;;2.47;1.90;;;;;;;16.05;42.67;101911.00;5129400;27;20184;-61
2021/09/23 08:29:18;;;;;;;3.00;2.00;;;;;;;16.42;43.20;101950.38;5126938;27;20270;-61
2021/09/23 08:31:44;;;;;;;2.90;1.90;;;;;;;16.58;42.35;101943.94;5129256;27;20246;-61
2021/09/23 08:34:10;;;;;;;3.10;1.80;;;;;;;16.70;40.49;101949.59;5128022;27;20185;-61
2021/09/23 08:36:35;;;;;;;2.57;1.70;;;;;;;16.79;41.07;101943.34;5110065;27;20266;-61
2021/09/23 08:39:02;;;;;;;2.60;1.87;;;;;;;16.91;40.61;101939.81;5127955;27;20188;-61
2021/09/23 08:41:28;;;;;;;3.57;2.10;;;;;;;16.97;40.46;101940.84;5124143;27;20186;-61
2021/09/23 08:43:55;;;;;;;1.80;1.60;;;;;;;17.09;39.36;101942.88;5127132;27;20432;-61
2021/09/23 08:46:21;;;;;;;2.30;1.63;;;;;;;16.95;39.97;101944.06;5127752;27;20188;-61
2021/09/23 08:48:48;;;;;;;4.00;2.13;;;;;;;16.73;39.58;101937.53;5126060;27;20182;-61
2021/09/23 08:51:14;;;;;;;4.53;2.53;;;;;;;16.72;40.71;101912.75;5122280;27;20184;-61
2021/09/23 08:53:40;;;;;;;6.77;4.83;;;;;;;17.02;40.62;101937.47;5124656;27;21135;-61
2021/09/23 08:56:11;;;;;;;2.50;1.77;;;;;;;16.93;39.33;101945.75;5125858;27;20193;-61
2021/09/23 08:58:38;;;;;;;4.57;1.97;;;;;;;17.01;39.79;101935.91;5114594;27;20193;-61
2021/09/23 09:01:10;;;;;;;3.23;1.70;;;;;;;17.08;40.15;101930.09;5119983;27;20486;-61
2021/09/23 09:03:37;;;;;;;2.67;2.00;;;;;;;17.08;40.04;101933.69;5127040;27;20201;-62
2021/09/23 09:06:05;;;;;;;3.00;1.90;;;;;;;17.28;39.27;101925.88;5127703;27;20708;-61
2021/09/23 09:08:36;;;;;;;2.93;1.80;;;;;;;17.40;38.60;101932.72;5127937;27;20178;-61
2021/09/23 09:11:04;;;;;;;4.13;2.00;;;;;;;17.54;38.65;101923.88;5127514;27;20195;-61
2021/09/23 09:13:34;;;;;;;2.30;1.70;;;;;;;17.64;38.32;101931.16;5128899;27;20182;-61
2021/09/23 09:16:09;;;;;;;2.40;1.60;;;;;;;17.57;37.99;101925.00;5128082;27;20181;-61
2021/09/23 09:18:35;;;;;;;2.63;1.60;;;;;;;17.39;38.52;101919.97;5127043;27;20222;-60
2021/09/23 09:21:04;;;;;;;4.33;1.70;;;;;;;17.24;38.36;101908.38;5128475;27;20171;-61
2021/09/23 09:23:55;;;;;;;2.30;1.80;;;;;;;17.24;38.14;101927.19;5127489;27;20214;-61
2021/09/23 09:26:39;;;;;;;2.10;1.70;;;;;;;17.41;38.69;101917.50;5121890;27;20181;-61
2021/09/23 09:29:07;;;;;;;3.00;1.57;;;;;;;17.57;38.01;101917.38;5105094;27;20201;-61
2021/09/23 09:31:34;;;;;;;4.27;2.20;;;;;;;17.44;38.52;101890.59;5126875;27;20260;-61
2021/09/23 09:34:01;;;;;;;2.33;1.80;;;;;;;17.52;37.55;101901.91;5127888;27;20639;-61
2021/09/23 09:36:39;;;;;;;2.67;1.70;;;;;;;17.71;36.83;101904.94;5124678;27;20609;-61
2021/09/23 09:39:13;;;;;;;2.40;1.90;;;;;;;17.82;36.73;101920.19;5124055;27;20726;-60
2021/09/23 09:41:43;;;;;;;2.27;1.60;;;;;;;18.04;37.11;101901.38;5127896;27;20186;-60
2021/09/23 09:44:11;;;;;;;2.50;1.73;;;;;;;18.24;37.24;101913.09;5127695;27;20201;-60
2021/09/23 09:46:50;;;;;;;2.83;1.70;;;;;;;18.45;36.49;101912.38;5123911;27;20219;-60
2021/09/23 09:49:16;;;;;;;2.33;1.70;;;;;;;18.41;36.92;101905.31;5106738;27;20192;-60
2021/09/23 09:51:49;;;;;;;1.90;1.60;;;;;;;18.28;35.55;101911.72;5125987;27;20289;-60
2021/09/23 09:54:16;;;;;;;2.87;1.40;;;;;;;17.99;36.03;101896.34;5106989;27;20275;-60
2021/09/23 09:56:44;;;;;;;3.47;2.00;;;;;;;18.23;36.62;101911.53;5126322;27;20195;-60
2021/09/23 09:59:18;;;;;;;2.10;1.40;;;;;;;18.27;36.38;101904.56;5123932;27;20192;-60
2021/09/23 10:01:46;;;;;;;3.93;1.80;;;;;;;18.37;35.53;101925.09;5122943;27;20177;-60
2021/09/23 10:04:13;;;;;;;2.53;1.40;;;;;;;18.27;36.03;101907.38;5109052;28;20202;-61
2021/09/23 10:06:40;;;;;;;2.00;1.40;;;;;;;18.22;36.03;101865.06;5128432;27;20193;-61
2021/09/23 10:09:08;;;;;;;2.57;1.63;;;;;;;18.53;35.07;101901.69;5126657;27;20204;-61
2021/09/23 10:11:35;;;;;;;2.73;1.37;;;;;;;18.61;35.43;101894.56;5106040;28;20213;-60
2021/09/23 10:14:05;;;;;;;4.03;1.60;;;;;;;18.69;35.22;101902.28;5126048;28;20181;-62
2021/09/23 10:16:32;;;;;;;1.90;1.33;;;;;;;18.89;35.18;101905.50;5134212;28;20233;-60
2021/09/23 10:18:58;;;;;;;3.90;1.70;;;;;;;19.12;34.25;101898.63;5107731;28;20650;-60
2021/09/23 10:21:25;;;;;;;2.93;1.67;;;;;;;19.11;34.03;101886.63;5123349;28;20196;-60
2021/09/23 10:23:52;;;;;;;3.10;1.50;;;;;;;19.29;34.59;101895.16;5127800;28;20198;-60
2021/09/23 10:26:20;;;;;;;2.67;1.58;;;;;;;19.49;33.02;101891.97;5127103;28;20917;-60
2021/09/23 10:28:48;;;;;;;2.93;1.80;;;;;;;19.63;33.58;101894.19;5127072;28;20176;-59
2021/09/23 10:31:21;;;;;;;4.00;1.90;;;;;;;19.48;33.23;101891.16;5126946;28;20193;-60
2021/09/23 10:33:48;;;;;;;3.43;1.63;;;;;;;19.45;32.90;101902.56;5120657;28;20180;-60
2021/09/23 10:36:19;;;;;;;2.80;1.70;;;;;;;19.33;32.15;101892.97;5121492;28;20249;-60
2021/09/23 10:38:44;;;;;;;2.77;1.83;;;;;;;19.29;32.22;101892.34;5119925;28;20188;-60
2021/09/23 10:41:11;;;;;;;3.20;1.50;;;;;;;19.16;33.30;101890.84;5124231;28;20185;-60
2021/09/23 10:43:38;;;;;;;1.53;1.20;;;;;;;18.91;32.83;101885.41;5123103;28;20212;-60
2021/09/23 10:46:04;;;;;;;2.03;1.43;;;;;;;19.03;32.73;101890.16;5126453;28;20188;-60
2021/09/23 10:48:37;;;;;;;2.63;1.60;;;;;;;19.35;33.40;101870.03;5126222;28;20670;-59
2021/09/23 10:51:05;;;;;;;2.67;1.40;;;;;;;19.37;32.66;101853.47;5125358;28;20184;-60
2021/09/23 10:53:34;;;;;;;2.10;1.47;;;;;;;19.50;32.04;101862.59;5126266;28;20248;-60
2021/09/23 10:56:05;;;;;;;2.90;1.50;;;;;;;19.70;32.42;101877.78;5127184;28;20181;-60
2021/09/23 10:58:31;;;;;;;2.27;1.27;;;;;;;19.50;33.30;101828.84;5125782;28;20272;-60
2021/09/23 11:01:01;;;;;;;2.10;1.57;;;;;;;19.70;32.42;101823.59;5127501;28;20349;-60
2021/09/23 11:03:35;;;;;;;2.60;1.63;;;;;;;19.50;31.01;101798.69;5126698;28;20674;-59
2021/09/23 11:06:07;;;;;;;1.73;1.37;;;;;;;19.89;31.70;101861.72;5126420;28;20671;-60
2021/09/23 11:08:39;;;;;;;1.90;1.30;;;;;;;19.75;32.43;101854.69;5124322;28;20162;-60
2021/09/23 11:11:07;;;;;;;3.30;1.40;;;;;;;19.79;32.10;101840.47;5102446;27;20196;-60
2021/09/23 11:13:35;;;;;;;3.60;1.80;;;;;;;19.85;32.31;101841.44;5127174;27;20223;-59
2021/09/23 11:16:03;;;;;;;2.30;1.50;;;;;;;19.96;32.59;101855.81;5130126;27;20189;-60
2021/09/23 11:18:30;;;;;;;1.67;1.40;;;;;;;20.14;31.86;101833.31;5127504;27;20221;-60
2021/09/23 11:20:57;;;;;;;2.67;1.30;;;;;;;20.34;31.52;101854.13;5130021;27;20185;-60